الصفحة الرئيسية
METAR-TAF:

METAR-TAF

مطار :

تومسك, روسيا

دائرة عرض: 56-23-12N, خط طول: 085-12-38E, ارتفاع: 182 متر

مراقبة الطقس الحالي

تاريخ ووقت الإصدار 33 دقيقة قبل الساعة 09:30UTC
ريح 8 عقدة من الجنوب/الجنوب الغربي
درجة الحرارة 5°درجة مئوية
الرطوبة 65%
ضغط 1019 hPa
الرؤية 10 كم أو أكثر
غيوم مفككة على ارتفاع 3900 قدم

METAR: UNTT 170930Z 21004MPS 9999 BKN039 05/M01 Q1019 R21/190055 NOSIG RMK QFE749

زمن: 17:03 (10:03 UTC)

توقعات

تاريخ ووقت الإصدار 2ساعات و 3 دقيقة قبل الساعة 08:00UTC
التوقعات صالحة من17 الساعة 09 UTC إلى 17 الساعة 18 UTC
ريح 10 عقدة من الجنوب الغربي
الرؤية 10 كم أو أكثر
غيوم مفككة على ارتفاع 3000 قدم
مؤقت
من 17 الساعة 12 UTC إلى 17 الساعة 18 UTC
ريح 2 عقدةمن اتجاهات متغيرة
الرؤية: 3100 متر
غيوم متفرقة على ارتفاع 500 قدم
غيوم مفككة على ارتفاع 2000 قدم, مزنة ركامية.
زخات من الأمطار الخفيفة, ثلوج

TAF: UNTT 170800Z 1709/1718 23005MPS 9999 BKN030 TEMPO 1712/1718 VRB01MPS 3100 -SHRASN SCT005 BKN020CB

أرصاد الطقس والتوقعات من أكثر من 4000 مطار (تقارير الطقس للمطار METAR والتنبؤ بالطقس بالمطارTAF).

المحطات المتاحة هي النقط الصفراء والحمراء على الخريطة.

حرك المؤشر فوق النقطة لمعرفة اسم المحطة.

ثم انقر لمعرفة أرصاد وتوقعات الطقس.

لتغيير الخارطة: اضغط على الأزرار الخضراء مع رمز الصليب الأسود للتكبير. على الزر الأخضر مع شرطة للتصغير، أو على الأسهم الخضراء للخرائط المجاورة.


METAR-TAF: